• Join FlightAware (Why Join?)
  • Login
  • US Flag 
08:06PM EDT


 

Airport Tracker/Info


-or-


 

Live Flight TrackerFlight Track Log ✈ TAM3859 ✈ 30-Sep-2013 ✈ SBCT / CWB - SBPA / POA

Flight Track Log - Related Links

Times and Time Zones

All times are in EDT time to prevent confusion due to time zone crossing. See the TAM3859 flight status page for this flight to view local times or setup timezone preferences in your user account.

Time Position Orientation Groundspeed Altitude Reporting Facility
EDT Latitude Longitude Course Direction KTS MPH feet Rate Location/Type
12:05PM -25.6250 -49.3220 195° South 350 403 11,100  Level FlightAware
12:05PM -25.6840 -49.3380 194° South 366 421 12,500 2,760 Climbing FlightAware
12:06PM -25.7410 -49.3540 194° South 365 420 14,300 2,640 Climbing FlightAware
12:06PM -25.8090 -49.3720 193° South 373 429 15,800 2,340 Climbing FlightAware
12:07PM -25.8670 -49.3880 194° South 376 433 17,300 1,200 Climbing FlightAware
12:08PM -25.9300 -49.4050 194° South 376 433 17,400 60 Climbing FlightAware
12:08PM -25.9860 -49.4210 194° South 376 433 17,400  Level FlightAware
12:09PM -26.0340 -49.4340 194° South 376 433 17,400  Level FlightAware
12:10PM -26.0880 -49.4490 194° South 376 433 17,400  Level FlightAware
12:10PM -26.1390 -49.4640 195° South 376 433 17,400  Level FlightAware
12:11PM -26.2120 -49.4840 194° South 376 433 17,400 4,020 Level FlightAware
12:12PM -26.4270 -49.5420 194° South 446 513 25,300 5,040 Climbing FlightAware
12:13PM -26.4980 -49.5620 194° South 455 524 25,900 1,260 Climbing FlightAware
12:14PM -26.5950 -49.5870 193° South 437 503 27,200 1,380 Climbing FlightAware
12:14PM -26.6710 -49.6090 195° South 421 484 28,000 720 Climbing FlightAware
12:15PM -26.7260 -49.6240 194° South 414 476 28,000  Level FlightAware
12:15PM -26.8000 -49.6480 196° South 405 466 28,000  Level FlightAware
12:16PM -26.8670 -49.6750 200° South 404 465 28,000  Level FlightAware
12:16PM -26.9250 -49.6970 199° South 405 466 28,000  Level FlightAware
12:17PM -26.9730 -49.7150 198° South 404 465 28,000  Level FlightAware
12:18PM -27.0550 -49.7470 199° South 404 465 28,000  Level FlightAware
12:18PM -27.1260 -49.7740 199° South 404 465 28,000  Level FlightAware
12:19PM -27.1820 -49.7960 199° South 406 467 28,000  Level FlightAware
12:20PM -27.2590 -49.8260 199° South 406 467 28,000  Level FlightAware
12:20PM -27.3110 -49.8460 199° South 404 465 28,000  Level FlightAware
12:21PM -27.3870 -49.8750 199° South 402 463 28,000  Level FlightAware
12:22PM -27.4460 -49.8980 199° South 400 460 28,000  Level FlightAware
12:22PM -27.5280 -49.9300 199° South 399 459 28,000  Level FlightAware
12:23PM -27.5980 -49.9570 199° South 398 458 28,000  Level FlightAware
12:24PM -27.6640 -49.9830 199° South 399 459 28,000  Level FlightAware
12:24PM -27.7190 -50.0050 199° South 399 459 28,000  Level FlightAware
12:25PM -27.7690 -50.0240 199° South 399 459 28,000  Level FlightAware
12:25PM -27.8600 -50.0600 199° South 398 458 28,000  Level FlightAware
12:26PM -27.9220 -50.0840 199° South 398 458 28,000  Level FlightAware
12:27PM -27.9940 -50.1120 199° South 397 457 28,000  Level FlightAware
12:27PM -28.0420 -50.1310 199° South 395 455 28,000  Level FlightAware
12:28PM -28.1170 -50.1610 199° South 396 456 28,000  Level FlightAware
12:28PM -28.1730 -50.1830 199° South 398 458 28,000  Level FlightAware
12:29PM -28.2250 -50.2030 199° South 398 458 28,000  Level FlightAware
12:30PM -28.2950 -50.2310 199° South 401 461 28,000 -240 Level FlightAware
12:30PM -28.3500 -50.2520 199° South 402 463 27,800 -420 Descending FlightAware
12:31PM -28.4300 -50.2850 200° South 406 467 27,500 -1,020 Descending FlightAware
12:31PM -28.4990 -50.3120 199° South 401 461 26,400 -2,280 Descending FlightAware
12:32PM -28.5700 -50.3400 199° South 401 461 24,500 -3,240 Descending FlightAware
12:33PM -28.6230 -50.3610 199° South 411 473 22,700 -4,020 Descending FlightAware
12:33PM -28.6780 -50.3830 199° South 428 493 20,500 -3,240 Descending FlightAware
12:34PM -28.7440 -50.4090 199° South 419 482 19,200 -2,760 Descending FlightAware
12:34PM -28.8020 -50.4360 202° Southwest 412 474 17,300 -3,360 Descending FlightAware
12:35PM -28.8630 -50.4720 207° Southwest 415 478 15,300 -3,360 Descending FlightAware
12:35PM -28.9260 -50.5090 207° Southwest 418 481 13,400 -2,100 Descending FlightAware
12:36PM -28.9800 -50.5390 206° Southwest 386 444 12,800 -1,020 Descending FlightAware
12:37PM -29.0430 -50.5640 199° South 357 411 12,200 -900 Descending FlightAware
12:37PM -29.0930 -50.5850 200° South 334 384 11,800 -840 Descending FlightAware
12:38PM -29.1490 -50.6090 201° Southwest 309 356 11,200 -900 Descending FlightAware
12:38PM -29.1940 -50.6280 200° South 301 346 10,700 -960 Descending FlightAware
12:39PM -29.2400 -50.6470 200° South 297 342 10,100 -1,020 Descending FlightAware
12:39PM -29.2660 -50.6580 200° South 293 337 9,800 -960 Descending FlightAware
12:40PM -29.2910 -50.6680 199° South 290 334 9,500 -960 Descending FlightAware
12:40PM -29.3210 -50.6810 201° Southwest 288 331 9,100 -1,020 Descending FlightAware
12:41PM -29.3620 -50.6980 200° South 287 330 8,600 -1,020 Descending FlightAware
12:41PM -29.3870 -50.7090 201° Southwest 288 331 8,300 -1,080 Descending FlightAware
12:41PM -29.4080 -50.7170 198° South 291 335 8,000 -1,080 Descending FlightAware
12:42PM -29.4310 -50.7270 201° Southwest 290 334 7,700 -900 Descending FlightAware
12:42PM -29.4580 -50.7390 201° Southwest 287 330 7,400 -1,020 Descending FlightAware
12:42PM -29.4830 -50.7490 199° South 286 329 7,000 -1,020 Descending FlightAware
12:42PM -29.5020 -50.7570 200° South 285 328 6,800 -1,020 Descending FlightAware
12:43PM -29.5290 -50.7680 200° South 285 328 6,400 -1,080 Descending FlightAware
12:43PM -29.5540 -50.7790 201° Southwest 283 326 6,100 -1,020 Descending FlightAware
12:43PM -29.5730 -50.7870 200° South 282 325 5,800 -900 Descending FlightAware
12:44PM -29.5960 -50.7970 201° Southwest 280 322 5,600 -540 Descending FlightAware
12:44PM -29.6320 -50.8120 200° South 279 321 5,400 -420 Descending FlightAware
12:45PM -29.6540 -50.8210 200° South 280 322 5,300 -300 Descending FlightAware
12:45PM -29.6860 -50.8350 201° Southwest 278 320 5,200 -420 Descending FlightAware
12:45PM -29.7080 -50.8440 200° South 279 321 5,000 -480 Descending FlightAware
12:46PM -29.7320 -50.8540 200° South 277 319 4,900 -360 Descending FlightAware
12:46PM -29.7540 -50.8630 200° South 273 314 4,800 -540 Descending FlightAware
12:46PM -29.7770 -50.8730 201° Southwest 271 312 4,600 -540 Descending FlightAware
12:47PM -29.7970 -50.8820 201° Southwest 273 314 4,500 -720 Descending FlightAware
12:47PM -29.8260 -50.8940 200° South 267 307 4,100 -1,380 Descending FlightAware
12:47PM -29.8460 -50.9030 201° Southwest 268 308 3,600 -1,500 Descending FlightAware
12:48PM -29.8690 -50.9120 199° South 264 304 3,200 -1,200 Descending FlightAware
12:48PM -29.8900 -50.9210 200° South 257 296 2,800 -1,080 Descending FlightAware
12:48PM -29.9120 -50.9300 200° South 249 287 2,500 -780 Descending FlightAware
12:49PM -29.9340 -50.9400 201° Southwest 237 273 2,300 -540 Descending FlightAware
12:49PM -29.9480 -50.9460 200° South 228 262 2,200 -540 Descending FlightAware
12:49PM -29.9690 -50.9550 200° South 215 247 2,000 -600 Descending FlightAware
12:49PM -29.9870 -50.9630 201° Southwest 204 235 1,800 -180 Descending FlightAware
12:50PM -29.9970 -50.9740 224° Southwest 190 219 1,900 240 Climbing FlightAware
12:50PM -29.9980 -50.9800 259° West 181 208 1,900  Level FlightAware
12:50PM -29.9990 -50.9840 254° West 176 203 1,900 -240 Level FlightAware
12:50PM -29.9980 -51.0040 273° West 151 174 1,800 -180 Descending FlightAware
12:51PM -29.9970 -51.0180 275° West 146 168 1,800  Level FlightAware
12:51PM -29.9970 -51.0320 270° West 142 163 1,800  Level FlightAware
12:51PM -29.9960 -51.0480 274° West 140 161 1,800 -180 Level FlightAware
12:52PM -29.9960 -51.0610 270° West 141 162 1,700 -540 Descending FlightAware
12:52PM -29.9960 -51.0730 270° West 135 155 1,500 -780 Descending FlightAware
12:52PM -29.9960 -51.0890 270° West 133 153 1,200 -720 Descending FlightAware
12:53PM -29.9960 -51.1030 270° West 132 152 1,000 -600 Descending FlightAware
12:53PM -29.9960 -51.1120 270° West 131 151 900 -600 Descending FlightAware
12:53PM -29.9950 -51.1250 275° West 135 155 700 -840 Descending FlightAware
12:53PM -29.9950 -51.1380 270° West 133 153 400 -1,020 Descending FlightAware
12:54PM -29.9950 -51.1630 270° West 136 157 -720 Descending FlightAware